Time;durP1;ratioP1;P1;durP2;ratioP2;P2;SDS_P1;SDS_P2;PMS_P1;PMS_P2;Temp;Humidity;BMP_temperature;BMP_pressure;BME280_temperature;BME280_humidity;BME280_pressure;Samples;Min_cycle;Max_cycle;Signal;HPM_P1;HPM_P2
2021/09/08 00:00:12;;;;;;;9.60;8.40;;;;;;;;;;5023253;28;20193;-74
2021/09/08 00:03:16;;;;;;;14.60;8.83;;;;;;;;;;5025044;28;20200;-73
2021/09/08 00:06:20;;;;;;;15.73;9.10;;;;;;;;;;5036411;28;20200;-74
2021/09/08 00:09:24;;;;;;;11.40;8.60;;;;;;;;;;5032752;28;20176;-74
2021/09/08 00:12:28;;;;;;;12.37;9.07;;;;;;;;;;5028688;28;20236;-74
2021/09/08 00:15:33;;;;;;;12.80;9.27;;;;;;;;;;5020954;28;20181;-74
2021/09/08 00:18:37;;;;;;;12.00;9.03;;;;;;;;;;5033010;28;20189;-74
2021/09/08 00:21:42;;;;;;;13.50;9.73;;;;;;;;;;5010127;28;20221;-74
2021/09/08 00:24:46;;;;;;;12.33;8.93;;;;;;;;;;5029277;28;20204;-73
2021/09/08 00:27:51;;;;;;;11.40;8.87;;;;;;;;;;5021355;28;20643;-73
2021/09/08 00:30:55;;;;;;;9.90;8.60;;;;;;;;;;5032578;28;20224;-74
2021/09/08 00:34:00;;;;;;;12.57;8.63;;;;;;;;;;5031279;28;20532;-73
2021/09/08 00:37:04;;;;;;;12.23;8.30;;;;;;;;;;4989511;28;20193;-74
2021/09/08 00:40:11;;;;;;;11.60;7.60;;;;;;;;;;5012884;28;20189;-74
2021/09/08 00:43:19;;;;;;;11.90;8.60;;;;;;;;;;5012790;28;20189;-73
2021/09/08 00:46:23;;;;;;;10.40;8.33;;;;;;;;;;5002775;28;20189;-74
2021/09/08 00:49:34;;;;;;;11.30;8.17;;;;;;;;;;4994550;28;20193;-74
2021/09/08 00:52:40;;;;;;;11.67;7.53;;;;;;;;;;5008537;28;20224;-73
2021/09/08 00:55:47;;;;;;;9.60;8.27;;;;;;;;;;5035752;28;20184;-74
2021/09/08 00:58:54;;;;;;;9.87;7.87;;;;;;;;;;5035762;28;20196;-74
2021/09/08 01:02:00;;;;;;;12.43;8.57;;;;;;;;;;5028621;28;20229;-73
2021/09/08 01:05:08;;;;;;;12.40;9.20;;;;;;;;;;5016706;28;20204;-73
2021/09/08 01:08:13;;;;;;;13.17;7.93;;;;;;;;;;5011398;28;20217;-73
2021/09/08 01:11:23;;;;;;;12.27;8.07;;;;;;;;;;5013528;28;20572;-73
2021/09/08 01:14:28;;;;;;;13.30;8.30;;;;;;;;;;5023416;28;20193;-74
2021/09/08 01:17:33;;;;;;;11.83;8.30;;;;;;;;;;5035430;28;20189;-75
2021/09/08 01:20:37;;;;;;;14.53;9.23;;;;;;;;;;5023668;28;20185;-73
2021/09/08 01:23:42;;;;;;;11.80;8.73;;;;;;;;;;5035771;28;20188;-74
2021/09/08 01:26:50;;;;;;;13.50;8.90;;;;;;;;;;5035542;28;20180;-74
2021/09/08 01:29:54;;;;;;;11.33;8.43;;;;;;;;;;5018308;28;20194;-74
2021/09/08 01:33:00;;;;;;;9.60;8.23;;;;;;;;;;5003260;28;20225;-74
2021/09/08 01:36:04;;;;;;;11.97;8.87;;;;;;;;;;5015074;28;20186;-75
2021/09/08 01:39:08;;;;;;;11.83;8.47;;;;;;;;;;5015749;28;20209;-74
2021/09/08 01:42:12;;;;;;;15.50;9.63;;;;;;;;;;5002936;28;20221;-74
2021/09/08 01:45:17;;;;;;;12.83;8.87;;;;;;;;;;5004294;28;20654;-74
2021/09/08 01:48:21;;;;;;;11.77;9.40;;;;;;;;;;5007714;28;20192;-74
2021/09/08 01:51:25;;;;;;;11.63;9.37;;;;;;;;;;4998436;28;20695;-74
2021/09/08 01:54:31;;;;;;;11.93;9.07;;;;;;;;;;5007380;28;20208;-74
2021/09/08 01:57:35;;;;;;;12.70;9.13;;;;;;;;;;5034423;28;20192;-74
2021/09/08 02:00:39;;;;;;;13.13;9.77;;;;;;;;;;5033915;28;20643;-75
2021/09/08 02:03:43;;;;;;;11.43;9.53;;;;;;;;;;5014664;28;20177;-74
2021/09/08 02:06:49;;;;;;;13.30;9.43;;;;;;;;;;5002523;28;20181;-74
2021/09/08 02:09:53;;;;;;;11.53;8.97;;;;;;;;;;4991623;28;20193;-74
2021/09/08 02:12:58;;;;;;;14.63;9.63;;;;;;;;;;5025489;28;20224;-74
2021/09/08 02:16:02;;;;;;;15.63;9.03;;;;;;;;;;5021990;28;20635;-74
2021/09/08 02:19:07;;;;;;;12.07;9.17;;;;;;;;;;5021652;28;20189;-74
2021/09/08 02:22:11;;;;;;;13.33;9.50;;;;;;;;;;5022295;28;20544;-74
2021/09/08 02:25:15;;;;;;;11.40;9.43;;;;;;;;;;5022925;28;20205;-73
2021/09/08 02:28:20;;;;;;;12.37;9.80;;;;;;;;;;5020149;28;20675;-73
2021/09/08 02:31:50;;;;;;;13.57;10.03;;;;;;;;;;5022489;28;20231;-74
2021/09/08 02:34:54;;;;;;;12.27;9.63;;;;;;;;;;4992346;28;20229;-72
2021/09/08 02:37:58;;;;;;;13.27;9.50;;;;;;;;;;4981726;28;20189;-72
2021/09/08 02:41:07;;;;;;;16.37;9.07;;;;;;;;;;4992949;28;20226;-72
2021/09/08 02:44:11;;;;;;;15.90;9.70;;;;;;;;;;4982616;28;20183;-73
2021/09/08 02:47:16;;;;;;;16.20;9.63;;;;;;;;;;4982383;28;20206;-72
2021/09/08 02:50:20;;;;;;;13.80;9.13;;;;;;;;;;4993991;28;20190;-72
2021/09/08 02:53:23;;;;;;;14.00;9.30;;;;;;;;;;4993755;28;20405;-72
2021/09/08 02:56:28;;;;;;;12.77;8.40;;;;;;;;;;4993860;28;20202;-72
2021/09/08 02:59:32;;;;;;;14.70;9.30;;;;;;;;;;4982359;28;20186;-73
2021/09/08 03:02:36;;;;;;;12.13;8.97;;;;;;;;;;4994279;28;20708;-73
2021/09/08 03:05:40;;;;;;;12.67;9.97;;;;;;;;;;4981547;28;20202;-72
2021/09/08 03:08:44;;;;;;;11.60;9.13;;;;;;;;;;4985690;28;20201;-72
2021/09/08 03:11:48;;;;;;;12.43;9.20;;;;;;;;;;4992817;28;20553;-72
2021/09/08 03:14:52;;;;;;;12.10;8.77;;;;;;;;;;4994402;28;20522;-73
2021/09/08 03:17:57;;;;;;;12.20;9.40;;;;;;;;;;4994095;28;20202;-72
2021/09/08 03:21:01;;;;;;;13.27;10.20;;;;;;;;;;4993883;28;20684;-71
2021/09/08 03:24:05;;;;;;;14.53;10.23;;;;;;;;;;4994360;28;20186;-72
2021/09/08 03:27:09;;;;;;;16.63;10.03;;;;;;;;;;4993326;28;20189;-72
2021/09/08 03:30:13;;;;;;;13.37;9.63;;;;;;;;;;4981585;28;20197;-72
2021/09/08 03:33:17;;;;;;;13.50;10.37;;;;;;;;;;4993425;28;20222;-73
2021/09/08 03:36:21;;;;;;;14.20;10.30;;;;;;;;;;4994217;28;20194;-72
2021/09/08 03:39:25;;;;;;;13.77;10.17;;;;;;;;;;4981433;28;20194;-72
2021/09/08 03:42:30;;;;;;;14.50;10.73;;;;;;;;;;4993849;28;20261;-72
2021/09/08 03:45:34;;;;;;;20.50;10.97;;;;;;;;;;4993013;28;20549;-72
2021/09/08 03:48:38;;;;;;;17.63;10.87;;;;;;;;;;4981214;28;20565;-72
2021/09/08 03:51:42;;;;;;;16.47;10.73;;;;;;;;;;4993769;28;20295;-73
2021/09/08 03:54:46;;;;;;;18.23;11.07;;;;;;;;;;4993208;28;20660;-72
2021/09/08 03:57:50;;;;;;;14.27;10.97;;;;;;;;;;4993520;28;20560;-72
2021/09/08 04:00:54;;;;;;;15.73;11.03;;;;;;;;;;4981463;28;20237;-72
2021/09/08 04:03:59;;;;;;;15.67;10.57;;;;;;;;;;4993034;28;20227;-72
2021/09/08 04:07:03;;;;;;;14.33;11.20;;;;;;;;;;4993700;28;20189;-73
2021/09/08 04:10:07;;;;;;;21.13;11.80;;;;;;;;;;4981411;28;20186;-72
2021/09/08 04:13:12;;;;;;;26.63;12.50;;;;;;;;;;4981427;28;20200;-72
2021/09/08 04:16:16;;;;;;;20.77;12.47;;;;;;;;;;4993868;28;20208;-72
2021/09/08 04:19:20;;;;;;;18.17;11.30;;;;;;;;;;4996693;28;20696;-73
2021/09/08 04:22:24;;;;;;;17.10;11.73;;;;;;;;;;4997009;28;20613;-71
2021/09/08 04:25:28;;;;;;;18.90;12.30;;;;;;;;;;4984464;28;20198;-72
2021/09/08 04:28:32;;;;;;;16.67;12.17;;;;;;;;;;4991849;28;20198;-72
2021/09/08 04:31:36;;;;;;;17.23;11.90;;;;;;;;;;4996887;28;20225;-72
2021/09/08 04:41:28;;;;;;;16.23;12.07;;;;;;;;;;4893303;29;20229;-89
2021/09/08 04:44:32;;;;;;;20.77;13.23;;;;;;;;;;4842433;29;20198;-88
2021/09/08 04:47:37;;;;;;;17.53;12.73;;;;;;;;;;4852495;29;20194;-88
2021/09/08 04:50:43;;;;;;;18.97;13.30;;;;;;;;;;4855119;29;20226;-88
2021/09/08 04:53:47;;;;;;;16.50;12.80;;;;;;;;;;4838524;29;20186;-85
2021/09/08 04:56:52;;;;;;;19.03;12.63;;;;;;;;;;4855364;29;20199;-89
2021/09/08 04:59:56;;;;;;;18.73;13.23;;;;;;;;;;4861584;29;20304;-88
2021/09/08 05:03:00;;;;;;;18.33;11.63;;;;;;;;;;4860183;29;20222;-88
2021/09/08 05:06:04;;;;;;;18.77;12.40;;;;;;;;;;4860420;29;20182;-89
2021/09/08 05:09:08;;;;;;;18.17;13.23;;;;;;;;;;4863477;29;20234;-88
2021/09/08 05:12:13;;;;;;;17.47;13.13;;;;;;;;;;4861831;29;20213;-88
2021/09/08 05:15:17;;;;;;;17.27;13.30;;;;;;;;;;4870593;29;20215;-88
2021/09/08 05:18:22;;;;;;;21.37;13.00;;;;;;;;;;4870110;29;20209;-87
2021/09/08 05:21:26;;;;;;;18.33;13.30;;;;;;;;;;4856548;29;20203;-87
2021/09/08 05:24:30;;;;;;;18.80;13.50;;;;;;;;;;4862343;29;20221;-88
2021/09/08 05:27:34;;;;;;;19.33;13.47;;;;;;;;;;4873191;29;20203;-87
2021/09/08 05:30:38;;;;;;;23.67;14.40;;;;;;;;;;4851678;29;20243;-88
2021/09/08 05:33:42;;;;;;;17.77;13.20;;;;;;;;;;4851578;29;20202;-88
2021/09/08 05:36:47;;;;;;;17.77;13.17;;;;;;;;;;4852252;29;20210;-87
2021/09/08 05:39:53;;;;;;;19.43;13.63;;;;;;;;;;4851515;29;20225;-87
2021/09/08 05:42:56;;;;;;;22.67;14.37;;;;;;;;;;4862084;29;20243;-87
2021/09/08 05:46:01;;;;;;;20.13;14.63;;;;;;;;;;4851984;29;20200;-87
2021/09/08 05:49:05;;;;;;;24.87;13.67;;;;;;;;;;4851791;29;20705;-87
2021/09/08 05:52:09;;;;;;;21.77;13.97;;;;;;;;;;4872919;29;20193;-87
2021/09/08 05:55:13;;;;;;;27.27;14.87;;;;;;;;;;4851418;29;20202;-87
2021/09/08 05:58:17;;;;;;;27.53;16.00;;;;;;;;;;4861830;29;20219;-87
2021/09/08 06:01:21;;;;;;;30.43;17.20;;;;;;;;;;4851197;29;20221;-88
2021/09/08 06:04:25;;;;;;;31.30;20.53;;;;;;;;;;4851047;29;20234;-87
2021/09/08 06:07:29;;;;;;;31.90;21.43;;;;;;;;;;4851502;29;20531;-87
2021/09/08 06:10:33;;;;;;;42.60;24.37;;;;;;;;;;4850994;29;20241;-87
2021/09/08 06:13:38;;;;;;;40.13;26.00;;;;;;;;;;4851216;29;20196;-87
2021/09/08 06:16:42;;;;;;;27.63;21.13;;;;;;;;;;4872652;29;20191;-88
2021/09/08 06:19:46;;;;;;;36.50;22.63;;;;;;;;;;4861296;29;20223;-87
2021/09/08 06:22:50;;;;;;;34.67;23.93;;;;;;;;;;4850734;29;20214;-87
2021/09/08 06:25:54;;;;;;;37.30;22.03;;;;;;;;;;4850936;29;20196;-88
2021/09/08 06:28:58;;;;;;;38.77;24.10;;;;;;;;;;4871972;29;20235;-87
2021/09/08 06:32:02;;;;;;;31.10;21.63;;;;;;;;;;4861393;29;20187;-87
2021/09/08 06:35:07;;;;;;;35.00;22.53;;;;;;;;;;4832111;29;20188;-88
2021/09/08 06:38:12;;;;;;;33.27;22.07;;;;;;;;;;4842984;29;20187;-87
2021/09/08 06:41:16;;;;;;;33.97;19.80;;;;;;;;;;4822010;29;20223;-87
2021/09/08 06:44:23;;;;;;;26.20;19.77;;;;;;;;;;4842813;29;20234;-87
2021/09/08 06:47:27;;;;;;;27.53;18.87;;;;;;;;;;4832446;29;20197;-87
2021/09/08 06:50:31;;;;;;;34.43;20.23;;;;;;;;;;4832320;29;20309;-87
2021/09/08 06:53:37;;;;;;;24.23;17.83;;;;;;;;;;4843632;29;20194;-88
2021/09/08 06:56:41;;;;;;;27.93;19.43;;;;;;;;;;4833014;29;20662;-88
2021/09/08 06:59:45;;;;;;;23.93;17.33;;;;;;;;;;4832240;29;20232;-88
2021/09/08 07:02:49;;;;;;;28.10;18.20;;;;;;;;;;4832135;29;20198;-87
2021/09/08 07:05:53;;;;;;;22.40;15.73;;;;;;;;;;4832569;29;20180;-88
2021/09/08 07:08:57;;;;;;;20.60;15.63;;;;;;;;;;4842619;29;20226;-87
2021/09/08 07:12:01;;;;;;;19.67;14.37;;;;;;;;;;4832141;29;20198;-87
2021/09/08 07:15:06;;;;;;;20.33;15.40;;;;;;;;;;4843188;29;20540;-87
2021/09/08 07:18:10;;;;;;;25.20;15.17;;;;;;;;;;4832108;29;20199;-88
2021/09/08 07:21:14;;;;;;;19.33;14.53;;;;;;;;;;4848853;29;20210;-87
2021/09/08 07:24:18;;;;;;;17.97;13.50;;;;;;;;;;4839365;29;20222;-87
2021/09/08 07:27:22;;;;;;;26.53;13.70;;;;;;;;;;4840143;29;20194;-87
2021/09/08 07:30:26;;;;;;;20.63;12.67;;;;;;;;;;4861050;29;20234;-86
2021/09/08 07:33:31;;;;;;;19.40;13.43;;;;;;;;;;4850513;29;20231;-87
2021/09/08 07:36:35;;;;;;;16.80;11.97;;;;;;;;;;4848340;29;20214;-87
2021/09/08 07:39:39;;;;;;;14.37;10.63;;;;;;;;;;4839163;29;20233;-87
2021/09/08 07:42:43;;;;;;;71.83;14.93;;;;;;;;;;4841929;29;20666;-87
2021/09/08 07:45:47;;;;;;;16.97;11.30;;;;;;;;;;4831816;29;20550;-87
2021/09/08 07:48:51;;;;;;;16.67;12.03;;;;;;;;;;4842283;29;20250;-87
2021/09/08 07:51:56;;;;;;;17.27;11.87;;;;;;;;;;4833096;29;20194;-87
2021/09/08 07:55:01;;;;;;;13.87;11.60;;;;;;;;;;4845385;29;20214;-87
2021/09/08 07:58:05;;;;;;;15.37;11.27;;;;;;;;;;4843708;29;20204;-87
2021/09/08 08:01:09;;;;;;;17.67;10.77;;;;;;;;;;4832931;29;20208;-87
2021/09/08 08:04:13;;;;;;;13.00;10.37;;;;;;;;;;4834292;29;20211;-87
2021/09/08 08:07:18;;;;;;;15.20;11.20;;;;;;;;;;4845714;29;20191;-88
2021/09/08 08:10:22;;;;;;;15.50;10.60;;;;;;;;;;4845090;29;20226;-87
2021/09/08 08:13:27;;;;;;;14.40;11.43;;;;;;;;;;4855962;29;20674;-87
2021/09/08 08:16:32;;;;;;;15.33;10.43;;;;;;;;;;4843541;29;20699;-87
2021/09/08 08:19:36;;;;;;;17.50;10.53;;;;;;;;;;4853974;29;20230;-86
2021/09/08 08:22:41;;;;;;;14.17;10.40;;;;;;;;;;4843417;29;20202;-86
2021/09/08 08:25:45;;;;;;;12.97;10.03;;;;;;;;;;4843230;29;20187;-86
2021/09/08 08:28:49;;;;;;;12.43;9.93;;;;;;;;;;4839783;29;20237;-86
2021/09/08 08:31:53;;;;;;;12.73;10.50;;;;;;;;;;4856803;29;20206;-87
2021/09/08 08:34:58;;;;;;;11.30;8.93;;;;;;;;;;4853034;29;20179;-87
2021/09/08 08:38:02;;;;;;;13.83;10.20;;;;;;;;;;4874478;29;20191;-87
2021/09/08 08:41:07;;;;;;;11.67;8.70;;;;;;;;;;4870326;29;20566;-87
2021/09/08 08:44:12;;;;;;;11.93;9.27;;;;;;;;;;4871449;29;20562;-87
2021/09/08 08:47:17;;;;;;;13.50;9.80;;;;;;;;;;4870858;29;20198;-87
2021/09/08 08:50:25;;;;;;;14.10;9.27;;;;;;;;;;4881534;29;20233;-87
2021/09/08 08:53:30;;;;;;;11.20;8.77;;;;;;;;;;4870930;29;20183;-86
2021/09/08 08:56:34;;;;;;;10.80;8.73;;;;;;;;;;4853291;29;20210;-88
2021/09/08 08:59:40;;;;;;;9.47;7.70;;;;;;;;;;4852027;29;20233;-87
2021/09/08 09:02:49;;;;;;;12.37;8.47;;;;;;;;;;4862773;29;20548;-87
2021/09/08 09:06:03;;;;;;;9.90;7.63;;;;;;;;;;4853337;29;20213;-87
2021/09/08 09:09:07;;;;;;;8.52;7.63;;;;;;;;;;4860319;29;20229;-87
2021/09/08 09:12:11;;;;;;;12.40;7.80;;;;;;;;;;4881204;29;20196;-87
2021/09/08 09:15:18;;;;;;;11.32;7.55;;;;;;;;;;4834854;29;20656;-88
2021/09/08 09:18:22;;;;;;;12.02;7.07;;;;;;;;;;4870045;29;20208;-87
2021/09/08 09:21:27;;;;;;;12.18;7.72;;;;;;;;;;4851637;29;20204;-87
2021/09/08 09:24:39;;;;;;;8.65;7.75;;;;;;;;;;4851806;29;20230;-87
2021/09/08 09:27:55;;;;;;;11.82;7.57;;;;;;;;;;4863682;29;20200;-87
2021/09/08 09:30:59;;;;;;;8.35;7.18;;;;;;;;;;4862286;29;20205;-87
2021/09/08 09:34:03;;;;;;;9.55;7.80;;;;;;;;;;4861332;29;20188;-87
2021/09/08 09:37:09;;;;;;;9.20;7.38;;;;;;;;;;4844417;29;20218;-87
2021/09/08 09:40:15;;;;;;;8.73;6.60;;;;;;;;;;4851628;29;20233;-87
2021/09/08 09:43:19;;;;;;;9.57;6.97;;;;;;;;;;4852378;29;20187;-87
2021/09/08 09:46:25;;;;;;;13.18;7.90;;;;;;;;;;4851117;29;20201;-87
2021/09/08 09:49:32;;;;;;;14.85;8.25;;;;;;;;;;4864547;29;20231;-87
2021/09/08 09:52:37;;;;;;;10.98;8.05;;;;;;;;;;4877793;29;20207;-86
2021/09/08 09:55:41;;;;;;;9.55;7.00;;;;;;;;;;4890738;29;20213;-87
2021/09/08 09:58:46;;;;;;;9.95;6.93;;;;;;;;;;4877020;29;20692;-86
2021/09/08 10:01:50;;;;;;;10.60;7.13;;;;;;;;;;4870779;29;20194;-87
2021/09/08 10:04:54;;;;;;;10.45;7.03;;;;;;;;;;4861436;29;20216;-88
2021/09/08 10:07:59;;;;;;;18.42;7.03;;;;;;;;;;4862045;29;20216;-87
2021/09/08 10:11:07;;;;;;;12.93;6.97;;;;;;;;;;4855312;29;20538;-87
2021/09/08 10:14:16;;;;;;;10.50;7.20;;;;;;;;;;4845121;29;20198;-87
2021/09/08 10:17:20;;;;;;;8.93;7.15;;;;;;;;;;4849622;29;20191;-87
2021/09/08 10:20:25;;;;;;;7.80;7.00;;;;;;;;;;4821981;29;20231;-87
2021/09/08 10:23:34;;;;;;;8.18;6.13;;;;;;;;;;4843780;29;20524;-87
2021/09/08 10:26:38;;;;;;;10.57;7.07;;;;;;;;;;4861756;29;20658;-87
2021/09/08 10:29:49;;;;;;;9.30;6.20;;;;;;;;;;4856944;29;20237;-88
2021/09/08 10:32:54;;;;;;;9.27;6.20;;;;;;;;;;4850854;29;20188;-88
2021/09/08 10:35:58;;;;;;;10.57;6.13;;;;;;;;;;4865435;29;20654;-87
2021/09/08 10:39:12;;;;;;;8.20;5.72;;;;;;;;;;4881610;29;20232;-87
2021/09/08 10:42:16;;;;;;;8.82;6.55;;;;;;;;;;4858492;29;20221;-87
2021/09/08 10:45:24;;;;;;;9.88;6.30;;;;;;;;;;4869269;29;20555;-87
2021/09/08 10:48:36;;;;;;;11.98;6.07;;;;;;;;;;4862227;29;20212;-87
2021/09/08 10:51:44;;;;;;;7.85;6.15;;;;;;;;;;4851607;29;20649;-86
2021/09/08 11:05:55;;;;;;;8.43;6.20;;;;;;;;;;4880078;29;20693;-87
2021/09/08 11:10:10;;;;;;;7.05;5.95;;;;;;;;;;4882279;29;20209;-87
2021/09/08 11:15:00;;;;;;;10.43;6.18;;;;;;;;;;4878902;29;20697;-87
2021/09/08 11:28:35;;;;;;;8.57;6.22;;;;;;;;;;4842172;29;20217;-87
2021/09/08 11:32:52;;;;;;;6.40;5.53;;;;;;;;;;4841163;29;20216;-88
2021/09/08 11:36:48;;;;;;;7.50;6.32;;;;;;;;;;4884345;29;20229;-88
2021/09/08 11:41:16;;;;;;;8.32;5.78;;;;;;;;;;4885080;29;20213;-88
2021/09/08 11:44:20;;;;;;;6.95;5.72;;;;;;;;;;4861386;29;20220;-87
2021/09/08 11:47:25;;;;;;;21.92;5.93;;;;;;;;;;4861670;29;20188;-87
2021/09/08 11:50:29;;;;;;;6.78;5.88;;;;;;;;;;4871776;29;20196;-87
2021/09/08 11:53:34;;;;;;;8.15;6.43;;;;;;;;;;4871824;29;20240;-88
2021/09/08 11:56:39;;;;;;;76.95;61.13;;;;;;;;;;4854386;29;20189;-87
2021/09/08 11:59:44;;;;;;;8.10;6.18;;;;;;;;;;4871828;29;20206;-87
2021/09/08 12:02:47;;;;;;;18.40;6.78;;;;;;;;;;4860859;29;20211;-85
2021/09/08 12:06:10;;;;;;;7.10;5.63;;;;;;;;;;4871355;29;20258;-85
2021/09/08 12:09:14;;;;;;;11.38;6.35;;;;;;;;;;4872184;29;20189;-85
2021/09/08 12:12:18;;;;;;;8.70;6.97;;;;;;;;;;4871310;29;20205;-85
2021/09/08 12:15:35;;;;;;;16.08;6.20;;;;;;;;;;4860685;29;20232;-85
2021/09/08 12:18:39;;;;;;;6.70;5.63;;;;;;;;;;4871436;29;20189;-85
2021/09/08 12:21:44;;;;;;;15.48;7.22;;;;;;;;;;4860662;29;20193;-85
2021/09/08 12:24:56;;;;;;;6.47;5.25;;;;;;;;;;4871358;29;20225;-85
2021/09/08 12:28:06;;;;;;;11.35;5.38;;;;;;;;;;4860781;29;20516;-85
2021/09/08 12:31:20;;;;;;;5.95;5.35;;;;;;;;;;4855188;29;20214;-85
2021/09/08 12:34:41;;;;;;;10.32;4.93;;;;;;;;;;4863689;29;20221;-85
2021/09/08 12:37:46;;;;;;;8.57;5.18;;;;;;;;;;4852000;29;20650;-85
2021/09/08 12:41:12;;;;;;;13.98;6.40;;;;;;;;;;4852794;29;20187;-85
2021/09/08 12:44:34;;;;;;;6.28;5.35;;;;;;;;;;4852352;29;20223;-85
2021/09/08 12:47:54;;;;;;;5.97;5.25;;;;;;;;;;4863372;29;20183;-85
2021/09/08 12:50:58;;;;;;;8.30;4.80;;;;;;;;;;4863675;29;20183;-85
2021/09/08 12:54:04;;;;;;;6.50;5.15;;;;;;;;;;4852252;29;20234;-85
2021/09/08 12:57:09;;;;;;;7.28;5.10;;;;;;;;;;4873716;29;20179;-85
2021/09/08 13:00:13;;;;;;;6.38;5.05;;;;;;;;;;4863208;29;20202;-85
2021/09/08 13:03:18;;;;;;;8.68;5.10;;;;;;;;;;4862916;29;20230;-85
2021/09/08 13:06:22;;;;;;;17.75;5.60;;;;;;;;;;4852226;29;20194;-85
2021/09/08 13:09:31;;;;;;;8.00;4.82;;;;;;;;;;4862923;29;20191;-85
2021/09/08 13:12:35;;;;;;;8.00;5.05;;;;;;;;;;4862703;29;20180;-85
2021/09/08 13:15:39;;;;;;;25.25;6.35;;;;;;;;;;4851993;29;20211;-85
2021/09/08 13:18:43;;;;;;;5.88;4.97;;;;;;;;;;4852320;29;20194;-85
2021/09/08 13:21:47;;;;;;;6.65;5.05;;;;;;;;;;4862202;29;20203;-85
2021/09/08 13:24:51;;;;;;;6.05;5.00;;;;;;;;;;4862392;29;20220;-85
2021/09/08 13:27:56;;;;;;;5.82;4.55;;;;;;;;;;4852006;29;20183;-86
2021/09/08 13:31:00;;;;;;;31.17;7.50;;;;;;;;;;4862247;29;20193;-85
2021/09/08 13:34:05;;;;;;;6.38;5.45;;;;;;;;;;4851582;29;20224;-85
2021/09/08 13:37:10;;;;;;;13.07;5.72;;;;;;;;;;4851884;29;20191;-85
2021/09/08 13:40:15;;;;;;;9.82;5.30;;;;;;;;;;4851257;29;20213;-85
2021/09/08 13:43:18;;;;;;;6.65;4.32;;;;;;;;;;4862041;29;20222;-85
2021/09/08 13:46:23;;;;;;;7.50;4.72;;;;;;;;;;4851203;29;20546;-84
2021/09/08 13:49:29;;;;;;;5.47;4.85;;;;;;;;;;4850236;29;20181;-85
2021/09/08 13:52:33;;;;;;;6.43;4.90;;;;;;;;;;4851527;29;20205;-85
2021/09/08 13:55:37;;;;;;;21.05;5.78;;;;;;;;;;4851037;29;20231;-85
2021/09/08 13:58:42;;;;;;;11.63;5.80;;;;;;;;;;4851383;29;20575;-85
2021/09/08 14:01:47;;;;;;;10.07;5.30;;;;;;;;;;4851455;29;20198;-85
2021/09/08 14:04:51;;;;;;;33.53;7.18;;;;;;;;;;4861425;29;20226;-85
2021/09/08 14:07:58;;;;;;;6.20;4.47;;;;;;;;;;4851831;29;20539;-85
2021/09/08 14:11:02;;;;;;;7.07;4.90;;;;;;;;;;4865934;29;20200;-86
2021/09/08 14:14:06;;;;;;;9.23;5.45;;;;;;;;;;4869113;29;20262;-86
2021/09/08 14:22:20;;;;;;;7.55;5.25;;;;;;;;;;4861517;29;20189;-87
2021/09/08 14:25:30;;;;;;;8.73;5.03;;;;;;;;;;4850861;29;20175;-87
2021/09/08 14:28:34;;;;;;;10.05;4.97;;;;;;;;;;4879005;29;20209;-87
2021/09/08 14:31:39;;;;;;;8.38;4.90;;;;;;;;;;4858534;29;20193;-87
2021/09/08 14:34:43;;;;;;;7.65;4.82;;;;;;;;;;4869501;29;20229;-87
2021/09/08 14:46:40;;;;;;;8.23;5.22;;;;;;;;;;4871711;29;20658;-87
2021/09/08 14:49:50;;;;;;;7.85;5.32;;;;;;;;;;4842146;29;20192;-86
2021/09/08 14:52:54;;;;;;;6.65;5.20;;;;;;;;;;4859406;29;20175;-86
2021/09/08 14:55:58;;;;;;;12.02;6.38;;;;;;;;;;4822139;29;20220;-87
2021/09/08 14:59:02;;;;;;;10.40;5.60;;;;;;;;;;4835600;29;20198;-86
2021/09/08 15:02:08;;;;;;;4.90;4.40;;;;;;;;;;4850676;29;20203;-86
2021/09/08 15:05:12;;;;;;;10.15;5.03;;;;;;;;;;4841393;29;20185;-86
2021/09/08 15:08:19;;;;;;;8.32;4.72;;;;;;;;;;4852105;29;20192;-86
2021/09/08 15:11:25;;;;;;;9.75;5.40;;;;;;;;;;4850995;29;20293;-86
2021/09/08 15:14:29;;;;;;;15.02;5.22;;;;;;;;;;4851074;29;20226;-88
2021/09/08 15:17:32;;;;;;;6.82;4.80;;;;;;;;;;4851330;29;20186;-86
2021/09/08 15:20:36;;;;;;;6.95;4.70;;;;;;;;;;4851146;29;20201;-86
2021/09/08 15:23:40;;;;;;;5.93;4.82;;;;;;;;;;4841262;29;20224;-86
2021/09/08 15:26:44;;;;;;;16.80;5.68;;;;;;;;;;4840711;29;20202;-86
2021/09/08 15:29:51;;;;;;;16.48;5.30;;;;;;;;;;4841279;29;20639;-86
2021/09/08 15:32:55;;;;;;;10.40;4.82;;;;;;;;;;4841128;29;20185;-86
2021/09/08 15:36:07;;;;;;;14.55;5.22;;;;;;;;;;4852190;29;20222;-86
2021/09/08 15:39:10;;;;;;;8.93;5.13;;;;;;;;;;4851051;29;20525;-86
2021/09/08 15:42:15;;;;;;;9.43;5.07;;;;;;;;;;4851300;29;20663;-86
2021/09/08 15:45:19;;;;;;;7.68;5.43;;;;;;;;;;4840130;29;20520;-86
2021/09/08 15:48:23;;;;;;;7.65;5.25;;;;;;;;;;4839759;29;20545;-86
2021/09/08 15:51:27;;;;;;;38.05;7.93;;;;;;;;;;4839857;29;20192;-88
2021/09/08 15:54:31;;;;;;;13.82;5.68;;;;;;;;;;4839279;29;20226;-88
2021/09/08 15:57:35;;;;;;;16.77;5.67;;;;;;;;;;4860395;29;20216;-88
2021/09/08 16:00:45;;;;;;;9.07;5.13;;;;;;;;;;4861187;29;20192;-89
2021/09/08 16:03:50;;;;;;;9.47;5.40;;;;;;;;;;4850452;29;20590;-86
2021/09/08 16:06:54;;;;;;;7.70;5.00;;;;;;;;;;4850738;29;20188;-85
2021/09/08 16:09:59;;;;;;;46.13;8.83;;;;;;;;;;4850509;29;20179;-85
2021/09/08 16:13:03;;;;;;;8.63;4.90;;;;;;;;;;4851971;29;20195;-88
2021/09/08 16:16:07;;;;;;;6.77;5.13;;;;;;;;;;4843198;29;20214;-87
2021/09/08 16:19:14;;;;;;;7.70;5.30;;;;;;;;;;4853680;29;20192;-88
2021/09/08 16:22:19;;;;;;;7.37;5.33;;;;;;;;;;4843322;29;20626;-87
2021/09/08 16:25:23;;;;;;;18.30;6.43;;;;;;;;;;4853536;29;20526;-86
2021/09/08 16:28:28;;;;;;;17.87;6.10;;;;;;;;;;4854935;29;20193;-88
2021/09/08 16:31:33;;;;;;;16.23;6.00;;;;;;;;;;4854087;29;20195;-88
2021/09/08 16:34:37;;;;;;;7.70;5.60;;;;;;;;;;4853276;29;20220;-86
2021/09/08 16:37:43;;;;;;;8.40;5.47;;;;;;;;;;4853086;29;20227;-86
2021/09/08 16:40:49;;;;;;;6.47;5.37;;;;;;;;;;4843156;29;20185;-88
2021/09/08 16:43:54;;;;;;;8.00;5.40;;;;;;;;;;4842909;29;20222;-88
2021/09/08 16:46:59;;;;;;;10.97;6.50;;;;;;;;;;4853611;29;20184;-86
2021/09/08 16:50:04;;;;;;;10.60;6.70;;;;;;;;;;4842726;29;20192;-86
2021/09/08 16:53:12;;;;;;;22.47;7.30;;;;;;;;;;4853659;29;20227;-86
2021/09/08 16:56:16;;;;;;;11.57;6.13;;;;;;;;;;4833020;29;20240;-88
2021/09/08 16:59:20;;;;;;;14.87;6.50;;;;;;;;;;4845694;29;20207;-88
2021/09/08 17:02:25;;;;;;;14.00;6.23;;;;;;;;;;4846088;29;20192;-87
2021/09/08 17:05:29;;;;;;;7.80;5.70;;;;;;;;;;4856685;29;20223;-88
2021/09/08 17:08:32;;;;;;;16.30;6.80;;;;;;;;;;4835061;29;20203;-88
2021/09/08 17:11:37;;;;;;;21.13;6.80;;;;;;;;;;4845202;29;20207;-88
2021/09/08 17:14:41;;;;;;;7.93;5.87;;;;;;;;;;4844856;29;20227;-88
2021/09/08 17:17:45;;;;;;;12.17;5.87;;;;;;;;;;4844812;29;20211;-88
2021/09/08 17:20:49;;;;;;;10.63;5.80;;;;;;;;;;4856628;29;20521;-87
2021/09/08 17:23:53;;;;;;;10.20;5.60;;;;;;;;;;4845725;29;20222;-88
2021/09/08 17:26:58;;;;;;;8.30;6.00;;;;;;;;;;4845278;29;20191;-88
2021/09/08 17:30:02;;;;;;;6.77;5.67;;;;;;;;;;4845339;29;20195;-88
2021/09/08 17:33:07;;;;;;;12.93;6.70;;;;;;;;;;4845597;29;20187;-88
2021/09/08 17:36:11;;;;;;;13.40;6.33;;;;;;;;;;4834602;29;20687;-88
2021/09/08 17:39:16;;;;;;;10.67;6.60;;;;;;;;;;4844884;29;20188;-88
2021/09/08 17:42:55;;;;;;;8.73;5.87;;;;;;;;;;4845462;29;20192;-87
2021/09/08 17:45:52;;;;;;;12.33;6.40;;;;;;;;;;4845470;29;20191;-87
2021/09/08 17:49:00;;;;;;;9.80;6.97;;;;;;;;;;4834250;29;20179;-88
2021/09/08 17:52:06;;;;;;;12.23;7.00;;;;;;;;;;4834011;29;20180;-88
2021/09/08 17:55:14;;;;;;;8.17;6.63;;;;;;;;;;4843595;29;20223;-88
2021/09/08 17:58:19;;;;;;;9.77;6.70;;;;;;;;;;4833789;29;20184;-88
2021/09/08 18:01:24;;;;;;;8.10;6.30;;;;;;;;;;4843981;29;20179;-88
2021/09/08 18:04:29;;;;;;;12.30;6.63;;;;;;;;;;4843111;29;20223;-87
2021/09/08 18:07:33;;;;;;;9.73;6.60;;;;;;;;;;4843453;29;20192;-87
2021/09/08 18:10:38;;;;;;;8.10;6.60;;;;;;;;;;4843384;29;20184;-88
2021/09/08 18:13:43;;;;;;;8.77;6.93;;;;;;;;;;4843072;29;20231;-87
2021/09/08 18:16:48;;;;;;;11.87;7.03;;;;;;;;;;4833035;29;20220;-89
2021/09/08 18:19:52;;;;;;;12.70;7.27;;;;;;;;;;4848955;29;20203;-88
2021/09/08 18:22:57;;;;;;;8.87;7.13;;;;;;;;;;4871468;29;20187;-87
2021/09/08 18:26:04;;;;;;;12.87;7.10;;;;;;;;;;4860102;29;20190;-86
2021/09/08 18:30:03;;;;;;;11.77;7.33;;;;;;;;;;4849684;29;20206;-86
2021/09/08 18:33:13;;;;;;;9.93;6.53;;;;;;;;;;4860431;29;20190;-88
2021/09/08 18:36:17;;;;;;;13.77;7.30;;;;;;;;;;4859647;29;20294;-87
2021/09/08 18:39:22;;;;;;;8.60;7.13;;;;;;;;;;4859997;29;20203;-86
2021/09/08 18:42:30;;;;;;;10.57;7.73;;;;;;;;;;4836994;29;20208;-87
2021/09/08 18:45:35;;;;;;;8.37;7.00;;;;;;;;;;4831402;29;20219;-87
2021/09/08 18:48:41;;;;;;;9.70;7.53;;;;;;;;;;4841807;29;20199;-87
2021/09/08 18:51:45;;;;;;;10.43;7.30;;;;;;;;;;4841378;29;20187;-87
2021/09/08 18:54:49;;;;;;;11.43;8.20;;;;;;;;;;4823331;29;20235;-86
2021/09/08 18:57:53;;;;;;;8.40;7.50;;;;;;;;;;4841584;29;20224;-86
2021/09/08 19:00:57;;;;;;;16.73;7.33;;;;;;;;;;4831136;29;20211;-87
2021/09/08 19:04:02;;;;;;;12.83;6.90;;;;;;;;;;4841119;29;20223;-87